Time;durP1;ratioP1;P1;durP2;ratioP2;P2;SDS_P1;SDS_P2;PMS_P1;PMS_P2;Temp;Humidity;BMP_temperature;BMP_pressure;BME280_temperature;BME280_humidity;BME280_pressure;Samples;Min_cycle;Max_cycle;Signal;HPM_P1;HPM_P2
2021/09/02 00:00:18;;;;;;;4.65;3.28;;;12.80;99.90;;;;;;6122049;23;20017;-73
2021/09/02 00:02:44;;;;;;;6.40;3.22;;;12.70;99.90;;;;;;6121171;23;20470;-73
2021/09/02 00:05:10;;;;;;;5.50;3.47;;;12.60;99.90;;;;;;6097709;23;20025;-73
2021/09/02 00:07:36;;;;;;;5.55;3.83;;;12.60;99.90;;;;;;6121826;23;20379;-73
2021/09/02 00:10:03;;;;;;;8.88;3.60;;;12.50;99.90;;;;;;6122513;23;20021;-73
2021/09/02 00:12:29;;;;;;;7.05;3.97;;;12.50;99.90;;;;;;6123295;23;20041;-73
2021/09/02 00:14:55;;;;;;;6.28;3.97;;;12.50;99.90;;;;;;6051728;23;20515;-73
2021/09/02 00:17:20;;;;;;;8.32;4.15;;;12.50;99.90;;;;;;6094700;23;20021;-73
2021/09/02 00:19:49;;;;;;;7.80;3.72;;;12.50;99.90;;;;;;6122519;23;20021;-73
2021/09/02 00:22:15;;;;;;;7.80;4.15;;;12.50;99.90;;;;;;6120848;23;20350;-73
2021/09/02 00:24:41;;;;;;;7.05;3.70;;;12.50;99.90;;;;;;6074764;23;20025;-73
2021/09/02 00:27:07;;;;;;;6.53;4.03;;;12.50;99.90;;;;;;6120056;23;20120;-71
2021/09/02 00:29:36;;;;;;;8.98;4.38;;;12.50;99.90;;;;;;6123601;23;20060;-73
2021/09/02 00:32:02;;;;;;;6.68;4.25;;;12.50;99.90;;;;;;6074709;23;20029;-73
2021/09/02 00:34:27;;;;;;;7.35;4.22;;;12.50;99.90;;;;;;6121475;23;20061;-74
2021/09/02 00:36:53;;;;;;;7.80;3.78;;;12.50;99.90;;;;;;6097540;23;20032;-73
2021/09/02 00:39:19;;;;;;;5.30;3.10;;;12.40;99.90;;;;;;6096899;23;20021;-73
2021/09/02 00:41:51;;;;;;;3.28;2.25;;;12.30;99.90;;;;;;6091526;23;20253;-73
2021/09/02 00:44:37;;;;;;;4.35;2.30;;;12.30;99.90;;;;;;6095823;23;20032;-73
2021/09/02 00:47:08;;;;;;;3.45;2.33;;;12.20;99.90;;;;;;6118976;23;20026;-73
2021/09/02 00:49:37;;;;;;;5.65;3.00;;;12.10;99.90;;;;;;6098292;23;20176;-73
2021/09/02 00:52:14;;;;;;;5.47;3.33;;;12.10;99.90;;;;;;6096084;23;20025;-73
2021/09/02 00:54:42;;;;;;;4.90;3.17;;;12.10;99.90;;;;;;6096579;23;20021;-73
2021/09/02 00:57:10;;;;;;;6.32;3.38;;;12.00;99.90;;;;;;6118529;23;20025;-73
2021/09/02 00:59:37;;;;;;;5.63;3.33;;;12.00;99.90;;;;;;6096228;23;20399;-73
2021/09/02 01:02:02;;;;;;;13.13;3.63;;;12.00;99.90;;;;;;6047528;23;20563;-73
2021/09/02 01:04:31;;;;;;;6.38;3.45;;;12.00;99.90;;;;;;6087851;23;20026;-73
2021/09/02 01:06:58;;;;;;;5.47;3.65;;;12.00;99.90;;;;;;6116464;23;20069;-73
2021/09/02 01:09:26;;;;;;;5.57;3.15;;;12.00;99.90;;;;;;6068127;23;20018;-73
2021/09/02 01:11:53;;;;;;;8.18;3.90;;;11.90;99.90;;;;;;6116977;23;20105;-72
2021/09/02 01:14:19;;;;;;;6.50;3.92;;;11.90;99.90;;;;;;6116118;23;20332;-72
2021/09/02 01:16:47;;;;;;;5.55;3.40;;;11.90;99.90;;;;;;6115799;23;20097;-73
2021/09/02 01:19:15;;;;;;;5.10;2.70;;;11.90;99.90;;;;;;6115691;23;20039;-72
2021/09/02 01:21:41;;;;;;;3.05;2.15;;;11.80;99.90;;;;;;6091671;23;20105;-73
2021/09/02 01:24:07;;;;;;;5.22;2.65;;;11.80;99.90;;;;;;6116729;23;20095;-73
2021/09/02 01:26:36;;;;;;;3.70;2.30;;;11.70;99.90;;;;;;6092087;23;20022;-73
2021/09/02 01:29:11;;;;;;;5.00;2.70;;;11.60;99.90;;;;;;6113808;23;20026;-73
2021/09/02 01:31:39;;;;;;;4.22;2.80;;;11.50;99.90;;;;;;6091967;23;20104;-74
2021/09/02 01:34:05;;;;;;;5.95;3.08;;;11.60;99.90;;;;;;6114839;23;20018;-73
2021/09/02 01:36:30;;;;;;;5.20;2.72;;;11.60;99.90;;;;;;6116385;23;20481;-73
2021/09/02 01:38:59;;;;;;;4.22;2.88;;;11.50;99.90;;;;;;6092289;23;20660;-73
2021/09/02 01:41:24;;;;;;;11.07;5.47;;;11.50;99.90;;;;;;6066887;23;20026;-73
2021/09/02 01:43:51;;;;;;;7.35;3.70;;;11.50;99.90;;;;;;6092909;23;20363;-73
2021/09/02 01:46:20;;;;;;;7.55;4.13;;;11.40;99.90;;;;;;6114654;23;20029;-74
2021/09/02 01:48:46;;;;;;;8.60;4.93;;;11.40;99.90;;;;;;6118036;23;20085;-73
2021/09/02 01:51:12;;;;;;;6.53;4.60;;;11.30;99.90;;;;;;6091294;23;20104;-73
2021/09/02 01:53:40;;;;;;;6.45;4.65;;;11.30;99.90;;;;;;6109785;23;20057;-73
2021/09/02 01:56:05;;;;;;;6.60;4.25;;;11.30;99.90;;;;;;6116552;23;20489;-73
2021/09/02 01:58:34;;;;;;;4.13;2.97;;;11.30;99.90;;;;;;6092390;23;20022;-73
2021/09/02 02:01:00;;;;;;;3.80;2.63;;;11.20;99.90;;;;;;6090710;23;20026;-73
2021/09/02 02:03:26;;;;;;;4.22;2.88;;;11.20;99.90;;;;;;6090193;23;20165;-73
2021/09/02 02:05:52;;;;;;;6.13;3.00;;;11.10;99.90;;;;;;6115710;23;20032;-73
2021/09/02 02:08:17;;;;;;;4.72;3.05;;;11.10;99.90;;;;;;6067199;23;20068;-73
2021/09/02 02:10:44;;;;;;;6.80;2.78;;;11.10;99.90;;;;;;6093792;23;20109;-73
2021/09/02 02:13:10;;;;;;;7.10;3.63;;;11.10;99.90;;;;;;6068932;23;20710;-73
2021/09/02 02:15:36;;;;;;;8.48;4.72;;;11.10;99.90;;;;;;6091622;23;20101;-73
2021/09/02 02:18:04;;;;;;;7.38;4.20;;;11.10;99.90;;;;;;6117997;23;20025;-73
2021/09/02 02:20:30;;;;;;;7.57;3.90;;;11.00;99.90;;;;;;6066680;23;20092;-73
2021/09/02 02:22:56;;;;;;;5.75;3.80;;;11.00;99.90;;;;;;6093028;23;20026;-73
2021/09/02 02:25:21;;;;;;;8.45;5.22;;;11.00;99.90;;;;;;6116501;23;20077;-73
2021/09/02 02:27:51;;;;;;;7.38;4.50;;;11.00;99.90;;;;;;6045234;23;20032;-73
2021/09/02 02:30:19;;;;;;;7.70;4.07;;;10.90;99.90;;;;;;6092909;23;20324;-73
2021/09/02 02:32:46;;;;;;;7.00;4.60;;;10.90;99.90;;;;;;6092620;23;20077;-73
2021/09/02 02:35:13;;;;;;;8.13;4.03;;;10.90;99.90;;;;;;6089602;23;20343;-73
2021/09/02 02:37:39;;;;;;;13.13;6.28;;;10.90;99.90;;;;;;6117522;23;20548;-73
2021/09/02 02:40:11;;;;;;;11.68;5.57;;;10.90;99.90;;;;;;6091818;23;20029;-73
2021/09/02 02:42:37;;;;;;;7.57;4.70;;;10.90;99.90;;;;;;6119267;23;20018;-73
2021/09/02 02:45:07;;;;;;;8.73;4.45;;;10.90;99.90;;;;;;6118619;23;20041;-73
2021/09/02 02:47:35;;;;;;;6.22;4.50;;;10.80;99.90;;;;;;6119338;23;20081;-73
2021/09/02 02:50:02;;;;;;;6.05;4.00;;;10.80;99.90;;;;;;6091981;23;20088;-73
2021/09/02 02:52:28;;;;;;;5.82;4.20;;;10.80;99.90;;;;;;6069289;23;20026;-73
2021/09/02 02:54:54;;;;;;;5.75;3.97;;;10.80;99.90;;;;;;6068889;23;20033;-73
2021/09/02 02:57:20;;;;;;;6.18;4.18;;;10.70;99.90;;;;;;6093637;23;20026;-73
2021/09/02 02:59:45;;;;;;;8.38;4.95;;;10.70;99.90;;;;;;6118469;23;20029;-73
2021/09/02 03:02:11;;;;;;;8.85;5.07;;;10.70;99.90;;;;;;6093670;23;20342;-73
2021/09/02 03:04:37;;;;;;;8.27;5.90;;;10.70;99.90;;;;;;6116691;23;20036;-73
2021/09/02 03:07:06;;;;;;;12.82;7.43;;;10.70;99.90;;;;;;6094282;23;20105;-73
2021/09/02 03:09:32;;;;;;;9.88;6.40;;;10.70;99.90;;;;;;6047026;23;20029;-73
2021/09/02 03:11:57;;;;;;;8.57;5.93;;;10.60;99.90;;;;;;6094598;23;20108;-73
2021/09/02 03:14:23;;;;;;;8.88;5.00;;;10.60;99.90;;;;;;6069094;23;20033;-73
2021/09/02 03:16:49;;;;;;;6.95;4.88;;;10.50;99.90;;;;;;6069890;23;20022;-73
2021/09/02 03:19:15;;;;;;;8.60;5.95;;;10.50;99.90;;;;;;6094148;23;20036;-73
2021/09/02 03:21:41;;;;;;;6.05;3.95;;;10.60;99.90;;;;;;6117876;23;20026;-73
2021/09/02 03:24:06;;;;;;;7.32;4.13;;;10.50;99.90;;;;;;6094188;23;20030;-73
2021/09/02 03:26:32;;;;;;;6.40;3.80;;;10.50;99.90;;;;;;6067002;23;20390;-72
2021/09/02 03:28:58;;;;;;;5.88;4.25;;;10.50;99.90;;;;;;6119788;23;20037;-72
2021/09/02 03:31:24;;;;;;;10.57;6.30;;;10.40;99.90;;;;;;6067532;23;20511;-71
2021/09/02 03:33:50;;;;;;;11.40;6.82;;;10.40;99.90;;;;;;6067871;23;20510;-72
2021/09/02 03:36:16;;;;;;;9.88;6.30;;;10.40;99.90;;;;;;6092865;23;20116;-73
2021/09/02 03:38:41;;;;;;;10.73;6.63;;;10.40;99.90;;;;;;6094158;23;20029;-72
2021/09/02 03:41:07;;;;;;;14.45;8.15;;;10.30;99.90;;;;;;6117542;23;20417;-72
2021/09/02 03:43:33;;;;;;;9.32;6.13;;;10.30;99.90;;;;;;6093346;23;20458;-72
2021/09/02 03:45:59;;;;;;;9.15;5.55;;;10.40;99.90;;;;;;6094993;23;20040;-72
2021/09/02 03:48:25;;;;;;;9.05;5.50;;;10.30;99.90;;;;;;6068697;23;20022;-72
2021/09/02 03:50:51;;;;;;;8.50;5.20;;;10.30;99.90;;;;;;6117439;23;20025;-73
2021/09/02 03:53:16;;;;;;;8.32;5.10;;;10.30;99.90;;;;;;6091581;23;20018;-73
2021/09/02 03:55:42;;;;;;;9.07;5.22;;;10.30;99.90;;;;;;6116349;23;20018;-73
2021/09/02 03:58:08;;;;;;;12.95;6.35;;;10.30;99.90;;;;;;6094662;23;20026;-73
2021/09/02 04:00:35;;;;;;;8.95;6.13;;;10.20;99.90;;;;;;6115411;23;20060;-73
2021/09/02 04:03:01;;;;;;;10.45;6.00;;;10.20;99.90;;;;;;6117308;23;20077;-73
2021/09/02 04:05:27;;;;;;;9.30;5.70;;;10.20;99.90;;;;;;6092145;23;20018;-74
2021/09/02 04:07:53;;;;;;;12.20;7.05;;;10.20;99.90;;;;;;6092651;23;20044;-73
2021/09/02 04:10:19;;;;;;;10.40;6.63;;;10.30;99.90;;;;;;6116876;23;20085;-73
2021/09/02 04:12:45;;;;;;;11.68;6.85;;;10.30;99.90;;;;;;6118869;23;20089;-73
2021/09/02 04:15:11;;;;;;;9.25;6.30;;;10.30;99.90;;;;;;6116370;23;20069;-73
2021/09/02 04:17:37;;;;;;;15.23;7.10;;;10.20;99.90;;;;;;6093450;23;20538;-73
2021/09/02 04:20:04;;;;;;;11.43;6.57;;;10.20;99.90;;;;;;6118520;23;20022;-73
2021/09/02 04:22:30;;;;;;;13.80;6.68;;;10.10;99.90;;;;;;6091933;23;20022;-73
2021/09/02 04:24:55;;;;;;;10.80;7.28;;;10.10;99.90;;;;;;6094940;23;20529;-73
2021/09/02 04:27:21;;;;;;;12.18;7.28;;;10.20;99.90;;;;;;6091973;23;20025;-73
2021/09/02 04:29:47;;;;;;;11.95;6.72;;;10.20;99.90;;;;;;6094035;23;20521;-73
2021/09/02 04:32:13;;;;;;;14.20;7.00;;;10.20;99.90;;;;;;6045153;23;20081;-73
2021/09/02 04:34:39;;;;;;;11.13;7.03;;;10.30;99.90;;;;;;6090501;23;20604;-73
2021/09/02 04:37:05;;;;;;;15.63;8.85;;;10.30;99.90;;;;;;6069532;23;20026;-73
2021/09/02 04:39:31;;;;;;;10.65;6.88;;;10.30;99.90;;;;;;6068666;23;20426;-73
2021/09/02 04:41:57;;;;;;;13.10;7.90;;;10.40;99.90;;;;;;6116172;23;20026;-73
2021/09/02 04:44:23;;;;;;;10.75;7.20;;;10.40;99.90;;;;;;6093951;23;20077;-73
2021/09/02 04:46:49;;;;;;;12.23;8.00;;;10.50;99.90;;;;;;6093403;23;20141;-73
2021/09/02 04:49:14;;;;;;;14.35;7.80;;;10.50;99.90;;;;;;6093541;23;20030;-73
2021/09/02 04:51:40;;;;;;;12.95;7.57;;;10.60;99.90;;;;;;6117454;23;20033;-73
2021/09/02 04:54:25;;;;;;;12.95;8.27;;;10.70;99.90;;;;;;6093533;23;20439;-73
2021/09/02 04:56:50;;;;;;;13.20;7.60;;;10.70;99.90;;;;;;6094202;23;20028;-73
2021/09/02 04:59:16;;;;;;;12.50;7.90;;;10.70;99.90;;;;;;6092405;23;20076;-73
2021/09/02 05:01:42;;;;;;;12.07;6.85;;;10.80;99.90;;;;;;6069466;23;20447;-73
2021/09/02 05:04:08;;;;;;;12.18;7.57;;;10.90;99.90;;;;;;6096823;23;20462;-73
2021/09/02 05:06:36;;;;;;;14.45;7.60;;;10.90;99.90;;;;;;6146316;23;20017;-73
2021/09/02 05:09:02;;;;;;;13.20;7.50;;;10.90;99.90;;;;;;6098787;23;20026;-73
2021/09/02 05:11:28;;;;;;;10.80;7.07;;;11.00;99.90;;;;;;6073813;23;20331;-73
2021/09/02 05:13:54;;;;;;;13.07;7.70;;;11.00;99.90;;;;;;6074439;23;20030;-73
2021/09/02 05:16:19;;;;;;;12.38;7.30;;;11.00;99.90;;;;;;6122222;23;20104;-73
2021/09/02 05:18:45;;;;;;;13.05;7.55;;;11.00;99.90;;;;;;6117583;23;20025;-73
2021/09/02 05:21:11;;;;;;;12.05;7.40;;;11.10;99.90;;;;;;6119743;23;20025;-73
2021/09/02 05:23:37;;;;;;;12.98;8.00;;;11.10;99.90;;;;;;6120172;23;20018;-73
2021/09/02 05:26:05;;;;;;;13.50;7.70;;;11.20;99.90;;;;;;6119943;23;20068;-73
2021/09/02 05:28:31;;;;;;;13.48;8.80;;;11.30;99.90;;;;;;6118885;23;20454;-73
2021/09/02 05:30:57;;;;;;;14.27;8.50;;;11.30;99.90;;;;;;6118863;23;20029;-73
2021/09/02 05:33:23;;;;;;;13.13;8.05;;;11.40;99.90;;;;;;6096069;23;20076;-73
2021/09/02 05:35:48;;;;;;;11.20;7.80;;;11.40;99.90;;;;;;6119866;23;20029;-73
2021/09/02 05:38:14;;;;;;;18.27;10.18;;;11.50;99.90;;;;;;6095506;23;20029;-73
2021/09/02 05:40:40;;;;;;;12.85;7.78;;;11.50;99.90;;;;;;6120358;23;20404;-73
2021/09/02 05:43:07;;;;;;;18.17;9.82;;;11.60;99.90;;;;;;6119476;23;20462;-73
2021/09/02 05:45:32;;;;;;;12.90;8.35;;;11.60;99.90;;;;;;6096468;23;20389;-73
2021/09/02 05:47:58;;;;;;;14.32;9.48;;;11.70;99.90;;;;;;6121318;23;20021;-73
2021/09/02 05:50:24;;;;;;;13.77;8.80;;;11.80;99.90;;;;;;6095773;23;20161;-74
2021/09/02 05:52:50;;;;;;;12.52;8.30;;;11.80;99.90;;;;;;6096762;23;20029;-73
2021/09/02 05:55:16;;;;;;;16.45;10.10;;;11.90;99.90;;;;;;6119839;23;20447;-73
2021/09/02 05:57:42;;;;;;;22.65;11.05;;;12.00;99.90;;;;;;6096081;23;20096;-73
2021/09/02 06:00:09;;;;;;;18.65;12.00;;;12.10;99.90;;;;;;6095974;23;20041;-73
2021/09/02 06:02:34;;;;;;;22.90;12.13;;;12.10;99.90;;;;;;6091855;23;20084;-73
2021/09/02 06:05:00;;;;;;;19.13;10.10;;;12.20;99.90;;;;;;6096263;23;20022;-73
2021/09/02 06:07:26;;;;;;;19.20;11.00;;;12.30;99.90;;;;;;6071488;23;20026;-73
2021/09/02 06:09:52;;;;;;;16.90;9.98;;;12.40;99.90;;;;;;6092909;23;20033;-73
2021/09/02 06:12:17;;;;;;;19.23;10.27;;;12.40;99.90;;;;;;6118886;23;20029;-73
2021/09/02 06:14:43;;;;;;;16.48;8.93;;;12.50;99.90;;;;;;6069618;23;20104;-73
2021/09/02 06:17:09;;;;;;;16.63;8.45;;;12.60;99.90;;;;;;6120813;23;20103;-73
2021/09/02 06:19:35;;;;;;;12.02;8.00;;;12.60;99.90;;;;;;6122874;23;20118;-73
2021/09/02 06:22:00;;;;;;;14.95;8.90;;;12.70;99.90;;;;;;6072405;23;20387;-73
2021/09/02 06:24:26;;;;;;;13.35;8.18;;;12.80;99.90;;;;;;6096888;23;20100;-73
2021/09/02 06:26:52;;;;;;;14.90;9.52;;;12.80;99.90;;;;;;6121607;23;20413;-73
2021/09/02 06:29:18;;;;;;;19.25;9.48;;;12.90;99.90;;;;;;6122514;23;20358;-73
2021/09/02 06:31:43;;;;;;;14.52;8.80;;;12.90;99.90;;;;;;6098597;23;20022;-73
2021/09/02 06:34:09;;;;;;;16.15;9.55;;;13.00;99.90;;;;;;6075338;23;20053;-73
2021/09/02 06:36:38;;;;;;;17.17;9.68;;;13.00;99.90;;;;;;6071583;23;20026;-73
2021/09/02 06:39:04;;;;;;;18.30;9.02;;;13.10;99.90;;;;;;6096512;23;20522;-73
2021/09/02 06:41:30;;;;;;;16.20;10.05;;;13.20;99.90;;;;;;6122941;23;20026;-73
2021/09/02 06:43:56;;;;;;;19.48;11.40;;;13.20;99.90;;;;;;6072732;23;20575;-73
2021/09/02 06:46:22;;;;;;;16.88;10.32;;;13.40;99.90;;;;;;6074115;23;20060;-73
2021/09/02 06:48:47;;;;;;;17.45;9.90;;;13.40;99.90;;;;;;6121594;23;20026;-73
2021/09/02 06:51:13;;;;;;;19.15;11.68;;;13.50;99.90;;;;;;6098881;23;20025;-73
2021/09/02 06:53:42;;;;;;;17.90;10.68;;;13.50;99.90;;;;;;6119557;23;20032;-73
2021/09/02 06:56:08;;;;;;;21.27;10.77;;;13.60;99.90;;;;;;6122841;23;20029;-73
2021/09/02 06:58:37;;;;;;;22.13;11.80;;;13.70;99.90;;;;;;6073717;23;20022;-73
2021/09/02 07:01:02;;;;;;;14.43;8.77;;;13.70;99.90;;;;;;6097266;23;20021;-73
2021/09/02 07:03:28;;;;;;;19.98;11.00;;;13.80;99.90;;;;;;6121903;23;20350;-74
2021/09/02 07:05:54;;;;;;;16.95;9.30;;;13.90;99.90;;;;;;6121060;23;20108;-74
2021/09/02 07:08:20;;;;;;;23.05;11.32;;;13.90;99.90;;;;;;6097220;23;20025;-74
2021/09/02 07:10:46;;;;;;;20.40;10.25;;;14.00;99.90;;;;;;6096074;23;20616;-72
2021/09/02 07:13:11;;;;;;;16.98;9.93;;;14.10;99.90;;;;;;6074105;23;20501;-72
2021/09/02 07:15:38;;;;;;;18.75;10.52;;;14.10;99.90;;;;;;6096721;23;20041;-72
2021/09/02 07:18:06;;;;;;;14.55;9.75;;;14.20;99.90;;;;;;6122960;23;20351;-72
2021/09/02 07:20:32;;;;;;;20.63;11.00;;;14.30;99.90;;;;;;6096887;23;20509;-72
2021/09/02 07:22:59;;;;;;;16.00;10.23;;;14.30;99.90;;;;;;6123533;23;20065;-72
2021/09/02 07:25:25;;;;;;;18.13;10.68;;;14.30;99.90;;;;;;6072430;23;20025;-72
2021/09/02 07:27:50;;;;;;;16.45;10.35;;;14.40;99.90;;;;;;6098274;23;20029;-72
2021/09/02 07:30:16;;;;;;;20.75;11.68;;;14.40;99.90;;;;;;6094982;23;20343;-72
2021/09/02 07:32:42;;;;;;;18.88;11.55;;;14.50;99.90;;;;;;6097755;23;20462;-72
2021/09/02 07:35:08;;;;;;;19.95;11.43;;;14.60;99.90;;;;;;6096412;23;20029;-72
2021/09/02 07:37:37;;;;;;;18.17;10.30;;;14.60;99.90;;;;;;6095765;23;20074;-73
2021/09/02 07:40:04;;;;;;;18.55;10.75;;;14.70;99.90;;;;;;6096787;23;20132;-73
2021/09/02 07:42:29;;;;;;;19.63;11.02;;;14.80;99.90;;;;;;6095319;23;20029;-73
2021/09/02 07:44:57;;;;;;;20.92;9.82;;;14.80;99.90;;;;;;6072831;23;20080;-73
2021/09/02 07:47:23;;;;;;;17.98;9.70;;;14.90;99.90;;;;;;6121628;23;20021;-73
2021/09/02 07:49:49;;;;;;;15.40;11.10;;;15.00;99.90;;;;;;6096846;23;20084;-73
2021/09/02 07:52:15;;;;;;;21.17;11.80;;;15.00;99.90;;;;;;6096486;23;20100;-73
2021/09/02 07:54:41;;;;;;;17.98;10.85;;;15.10;99.90;;;;;;6121462;23;20077;-73
2021/09/02 07:57:07;;;;;;;18.73;12.00;;;15.20;99.90;;;;;;6120286;23;20029;-72
2021/09/02 07:59:32;;;;;;;20.48;12.85;;;15.20;99.90;;;;;;6097227;23;20025;-72
2021/09/02 08:01:58;;;;;;;26.65;13.93;;;15.30;99.90;;;;;;6121104;23;20036;-72
2021/09/02 08:04:25;;;;;;;22.00;13.77;;;15.40;99.90;;;;;;6097524;23;20351;-74
2021/09/02 08:06:51;;;;;;;24.23;13.38;;;15.40;99.90;;;;;;6073230;23;20481;-73
2021/09/02 08:09:17;;;;;;;26.02;15.52;;;15.50;99.90;;;;;;6096351;23;20081;-74
2021/09/02 08:11:43;;;;;;;22.13;12.35;;;15.60;99.90;;;;;;6121867;23;20080;-74
2021/09/02 08:14:09;;;;;;;25.17;13.95;;;15.70;99.90;;;;;;6048117;23;20025;-74
2021/09/02 08:16:35;;;;;;;21.88;13.90;;;15.80;99.90;;;;;;6096998;23;20127;-74
2021/09/02 08:19:01;;;;;;;23.83;14.00;;;15.80;99.90;;;;;;6097748;23;20024;-74
2021/09/02 08:21:27;;;;;;;23.73;14.57;;;15.90;99.90;;;;;;6121380;23;20109;-74
2021/09/02 08:23:55;;;;;;;25.17;15.40;;;15.90;99.90;;;;;;6094232;23;20053;-74
2021/09/02 08:26:21;;;;;;;19.58;12.13;;;16.00;99.90;;;;;;6121591;23;20025;-74
2021/09/02 08:28:47;;;;;;;20.00;13.75;;;16.10;99.90;;;;;;6070164;23;20749;-74
2021/09/02 08:31:13;;;;;;;22.17;14.90;;;16.20;99.90;;;;;;6047988;23;20032;-74
2021/09/02 08:33:39;;;;;;;24.98;12.90;;;16.20;99.90;;;;;;6120744;23;20026;-74
2021/09/02 08:36:04;;;;;;;23.13;12.25;;;16.30;99.90;;;;;;6096089;23;20109;-74
2021/09/02 08:38:30;;;;;;;16.65;11.45;;;16.40;99.90;;;;;;6096715;23;20022;-74
2021/09/02 08:40:56;;;;;;;17.80;12.88;;;16.50;99.90;;;;;;6095578;23;20022;-74
2021/09/02 08:43:24;;;;;;;22.80;13.35;;;16.50;99.90;;;;;;6096807;23;20084;-74
2021/09/02 08:45:50;;;;;;;21.75;13.20;;;16.60;99.90;;;;;;6121804;23;20043;-74
2021/09/02 08:48:16;;;;;;;19.80;12.52;;;16.60;99.90;;;;;;6096954;23;20097;-74
2021/09/02 08:50:42;;;;;;;18.95;12.13;;;16.60;99.90;;;;;;6097946;23;20021;-74
2021/09/02 08:53:08;;;;;;;18.80;10.50;;;16.70;99.90;;;;;;6096479;23;20032;-74
2021/09/02 08:55:35;;;;;;;15.55;10.25;;;16.80;99.90;;;;;;6121042;23;20025;-74
2021/09/02 08:58:22;;;;;;;17.88;10.35;;;16.80;99.90;;;;;;6122180;23;20069;-74
2021/09/02 09:00:47;;;;;;;19.00;10.27;;;16.90;99.90;;;;;;6096728;23;20494;-74
2021/09/02 09:03:17;;;;;;;21.88;10.93;;;16.90;99.90;;;;;;6120861;23;20040;-74
2021/09/02 09:05:43;;;;;;;19.35;10.20;;;17.00;99.90;;;;;;6094872;23;20110;-74
2021/09/02 09:08:11;;;;;;;20.17;11.60;;;17.00;99.90;;;;;;6119678;23;20049;-74
2021/09/02 09:10:40;;;;;;;18.08;9.35;;;17.00;99.90;;;;;;6119804;23;20056;-74
2021/09/02 09:13:10;;;;;;;17.70;9.98;;;17.10;99.90;;;;;;6121615;23;20025;-74
2021/09/02 09:15:42;;;;;;;15.32;10.70;;;17.10;99.90;;;;;;6096314;23;20021;-74
2021/09/02 09:18:17;;;;;;;20.60;11.18;;;17.10;99.90;;;;;;6120274;23;20466;-75
2021/09/02 09:20:43;;;;;;;17.73;10.10;;;17.20;99.90;;;;;;6094369;23;20025;-74
2021/09/02 09:23:09;;;;;;;17.15;9.90;;;17.20;99.90;;;;;;6096889;23;20026;-74
2021/09/02 09:25:38;;;;;;;20.23;10.57;;;17.20;99.90;;;;;;6097709;23;20043;-74
2021/09/02 09:28:04;;;;;;;18.52;11.73;;;17.20;99.90;;;;;;6073156;23;20068;-75
2021/09/02 09:30:33;;;;;;;21.95;12.18;;;17.20;99.90;;;;;;6073774;23;20021;-74
2021/09/02 09:33:06;;;;;;;22.30;11.15;;;17.20;99.90;;;;;;6096596;23;20021;-74
2021/09/02 09:35:35;;;;;;;22.17;11.85;;;17.20;99.90;;;;;;6120163;23;20018;-74
2021/09/02 09:38:16;;;;;;;18.83;12.15;;;17.10;99.90;;;;;;6096104;23;20047;-74
2021/09/02 09:40:47;;;;;;;18.00;10.48;;;17.20;99.90;;;;;;6123336;23;20022;-74
2021/09/02 09:43:15;;;;;;;17.85;11.20;;;17.20;99.90;;;;;;6121044;23;20118;-75
2021/09/02 09:45:46;;;;;;;22.80;11.73;;;17.20;99.90;;;;;;6097198;23;20075;-74
2021/09/02 09:48:35;;;;;;;18.92;10.40;;;17.30;99.90;;;;;;6120719;23;20061;-74
2021/09/02 09:51:19;;;;;;;19.25;10.57;;;17.30;99.90;;;;;;6122886;23;20021;-74
2021/09/02 09:53:50;;;;;;;19.30;12.23;;;17.30;99.90;;;;;;6119101;23;20026;-74
2021/09/02 09:56:24;;;;;;;19.35;12.20;;;17.30;99.90;;;;;;6096587;23;20021;-74
2021/09/02 09:58:52;;;;;;;18.40;12.20;;;17.30;99.90;;;;;;6096068;23;20018;-74
2021/09/02 10:01:19;;;;;;;20.38;11.52;;;17.30;99.90;;;;;;6121362;23;20034;-74
2021/09/02 10:03:51;;;;;;;19.40;11.35;;;17.40;99.90;;;;;;6097243;23;20037;-74
2021/09/02 10:06:19;;;;;;;16.92;10.23;;;17.40;99.90;;;;;;6119214;23;20628;-74
2021/09/02 10:08:45;;;;;;;19.85;11.52;;;17.50;99.90;;;;;;6071773;23;20017;-74
2021/09/02 10:11:13;;;;;;;18.83;12.20;;;17.50;99.90;;;;;;6096008;23;20018;-74
2021/09/02 10:13:40;;;;;;;17.77;11.15;;;17.60;99.90;;;;;;6119868;23;20100;-74
2021/09/02 10:16:07;;;;;;;16.75;11.25;;;17.70;99.90;;;;;;6120254;23;20021;-74
2021/09/02 10:18:37;;;;;;;21.42;11.52;;;17.70;99.90;;;;;;6095952;23;20644;-74
2021/09/02 10:21:06;;;;;;;18.50;11.93;;;17.70;99.90;;;;;;6120154;23;20026;-74
2021/09/02 10:23:32;;;;;;;20.17;12.07;;;17.70;99.90;;;;;;6121069;23;20021;-74
2021/09/02 10:26:28;;;;;;;19.30;10.73;;;17.70;99.90;;;;;;6120793;23;20538;-74
2021/09/02 10:28:53;;;;;;;17.60;11.50;;;17.90;99.90;;;;;;6119355;23;20887;-74
2021/09/02 10:31:23;;;;;;;15.20;11.07;;;17.80;99.90;;;;;;6095830;23;20056;-74
2021/09/02 10:33:50;;;;;;;19.20;11.20;;;17.90;99.80;;;;;;6093558;23;20482;-74
2021/09/02 10:36:15;;;;;;;16.35;11.07;;;18.00;99.60;;;;;;6071216;23;20037;-74
2021/09/02 10:38:49;;;;;;;18.13;10.75;;;18.00;99.00;;;;;;6119053;23;20022;-74
2021/09/02 10:41:40;;;;;;;17.45;10.02;;;18.00;99.40;;;;;;6120553;23;20033;-74
2021/09/02 10:44:36;;;;;;;20.20;11.18;;;18.00;98.60;;;;;;6074155;23;20470;-74
2021/09/02 10:47:17;;;;;;;17.95;11.95;;;18.00;99.30;;;;;;6117623;23;20104;-74
2021/09/02 10:49:43;;;;;;;18.00;10.48;;;18.00;99.70;;;;;;6070268;23;20017;-74
2021/09/02 10:52:28;;;;;;;19.83;11.18;;;18.00;99.40;;;;;;6071378;23;20164;-74
2021/09/02 10:55:15;;;;;;;20.00;11.10;;;18.00;98.80;;;;;;6120859;23;20029;-74
2021/09/02 10:57:40;;;;;;;18.45;12.30;;;18.10;98.40;;;;;;6118597;23;20033;-74
2021/09/02 11:00:07;;;;;;;19.48;11.55;;;18.10;98.30;;;;;;6143646;23;20021;-74
2021/09/02 11:02:40;;;;;;;18.33;11.38;;;18.10;97.60;;;;;;6094250;23;20025;-74
2021/09/02 11:05:07;;;;;;;18.80;12.25;;;18.20;98.10;;;;;;6118430;23;20148;-74
2021/09/02 11:07:49;;;;;;;15.10;10.80;;;18.20;98.70;;;;;;6094615;23;20025;-74
2021/09/02 11:10:16;;;;;;;17.85;9.40;;;18.30;97.80;;;;;;6121034;23;20025;-73
2021/09/02 11:12:42;;;;;;;17.67;10.50;;;18.30;97.50;;;;;;6122079;23;20021;-73
2021/09/02 11:15:10;;;;;;;18.88;10.98;;;18.30;96.90;;;;;;6122670;23;20030;-73
2021/09/02 11:17:36;;;;;;;15.40;10.05;;;18.40;96.30;;;;;;6117304;23;20026;-73
2021/09/02 11:20:17;;;;;;;19.00;11.32;;;18.40;96.00;;;;;;6122252;23;20112;-74
2021/09/02 11:22:43;;;;;;;19.45;10.25;;;18.50;95.80;;;;;;6101483;23;20083;-74
2021/09/02 11:25:09;;;;;;;18.83;10.57;;;18.50;95.70;;;;;;6072867;23;20025;-74
2021/09/02 11:27:35;;;;;;;19.83;11.50;;;18.60;95.80;;;;;;6119275;23;20435;-73
2021/09/02 11:30:20;;;;;;;20.50;11.07;;;18.60;95.90;;;;;;6098395;23;20021;-73
2021/09/02 11:33:00;;;;;;;17.30;10.80;;;18.70;95.80;;;;;;6121565;23;20485;-73
2021/09/02 11:35:26;;;;;;;;;;;18.70;94.80;;;;;;6123555;23;20092;-73
2021/09/02 11:37:52;;;;;;;17.80;10.43;;;18.60;93.70;;;;;;6121527;23;20691;-73
2021/09/02 11:40:29;;;;;;;17.80;11.77;;;18.60;95.00;;;;;;6096025;23;20137;-73
2021/09/02 11:42:56;;;;;;;18.05;11.13;;;18.70;94.60;;;;;;6096749;23;20115;-73
2021/09/02 11:45:24;;;;;;;18.75;11.18;;;18.70;94.70;;;;;;6090431;23;20028;-73
2021/09/02 11:47:51;;;;;;;18.05;11.00;;;18.80;94.40;;;;;;6094588;23;20025;-73
2021/09/02 11:50:22;;;;;;;17.55;11.25;;;18.80;94.20;;;;;;6097020;23;20030;-73
2021/09/02 11:52:51;;;;;;;15.32;10.13;;;18.80;93.50;;;;;;6096437;23;20044;-73
2021/09/02 11:55:33;;;;;;;18.08;9.95;;;18.80;93.60;;;;;;6121137;23;20021;-73
2021/09/02 11:58:06;;;;;;;23.35;10.85;;;18.80;93.70;;;;;;6092581;23;20029;-74
2021/09/02 12:00:34;;;;;;;;;;;18.80;93.50;;;;;;6073653;23;20128;-73
2021/09/02 12:03:01;;;;;;;16.63;9.70;;;18.80;93.90;;;;;;6122059;23;20256;-73
2021/09/02 12:05:36;;;;;;;20.27;10.82;;;18.80;93.40;;;;;;6118068;23;20256;-74
2021/09/02 12:08:07;;;;;;;17.65;10.65;;;18.80;93.30;;;;;;6120962;23;20044;-74
2021/09/02 12:10:38;;;;;;;17.60;10.00;;;18.80;93.40;;;;;;6122415;23;20053;-75
2021/09/02 12:13:36;;;;;;;15.80;10.45;;;18.80;92.90;;;;;;6098294;23;20040;-74
2021/09/02 12:16:10;;;;;;;17.30;9.35;;;19.00;93.50;;;;;;6104008;23;20021;-74
2021/09/02 12:18:38;;;;;;;13.80;9.85;;;19.10;93.30;;;;;;6096260;23;20096;-74
2021/09/02 12:21:12;;;;;;;13.65;8.85;;;19.20;94.00;;;;;;6120691;23;20022;-74
2021/09/02 12:24:11;;;;;;;16.63;9.07;;;19.50;94.60;;;;;;6096063;23;20359;-74
2021/09/02 12:26:54;;;;;;;19.88;9.13;;;19.80;94.80;;;;;;6110360;23;20455;-74
2021/09/02 12:29:23;;;;;;;14.25;8.13;;;20.10;93.60;;;;;;6096463;23;20025;-74
2021/09/02 12:31:54;;;;;;;15.38;9.07;;;20.40;93.70;;;;;;6097928;23;20033;-73
2021/09/02 12:34:29;;;;;;;14.85;9.18;;;20.70;92.40;;;;;;6120896;23;20025;-74
2021/09/02 12:37:16;;;;;;;20.65;11.00;;;20.90;90.90;;;;;;6121924;23;20053;-74
2021/09/02 12:39:52;;;;;;;11.98;9.05;;;21.00;91.00;;;;;;6119735;23;20024;-74